sensor_id;sensor_type;location;lat;lon;timestamp;P1;durP1;ratioP1;P2;durP2;ratioP2
48487;SDS011;34289;48.572;13.378;2023-06-14T00:00:58;10.57;;;9.85;;
48487;SDS011;34289;48.572;13.378;2023-06-14T00:03:24;9.85;;;8.95;;
48487;SDS011;34289;48.572;13.378;2023-06-14T00:05:50;9.18;;;8.48;;
48487;SDS011;34289;48.572;13.378;2023-06-14T00:08:17;8.32;;;7.72;;
48487;SDS011;34289;48.572;13.378;2023-06-14T00:10:43;11.05;;;10.30;;
48487;SDS011;34289;48.572;13.378;2023-06-14T00:13:10;9.88;;;9.07;;
48487;SDS011;34289;48.572;13.378;2023-06-14T00:15:36;10.10;;;9.30;;
48487;SDS011;34289;48.572;13.378;2023-06-14T00:18:02;4.07;;;3.38;;
48487;SDS011;34289;48.572;13.378;2023-06-14T00:20:29;4.10;;;3.00;;
48487;SDS011;34289;48.572;13.378;2023-06-14T00:22:57;3.67;;;3.00;;
48487;SDS011;34289;48.572;13.378;2023-06-14T00:25:23;5.47;;;3.10;;
48487;SDS011;34289;48.572;13.378;2023-06-14T00:27:53;3.17;;;2.42;;
48487;SDS011;34289;48.572;13.378;2023-06-14T00:30:19;4.15;;;2.78;;
48487;SDS011;34289;48.572;13.378;2023-06-14T00:32:45;3.47;;;2.53;;
48487;SDS011;34289;48.572;13.378;2023-06-14T00:35:12;6.88;;;2.60;;
48487;SDS011;34289;48.572;13.378;2023-06-14T00:37:39;4.10;;;2.78;;
48487;SDS011;34289;48.572;13.378;2023-06-14T00:40:06;4.65;;;3.10;;
48487;SDS011;34289;48.572;13.378;2023-06-14T00:42:33;6.53;;;3.15;;
48487;SDS011;34289;48.572;13.378;2023-06-14T00:45:00;4.00;;;3.17;;
48487;SDS011;34289;48.572;13.378;2023-06-14T00:47:27;6.13;;;3.60;;
48487;SDS011;34289;48.572;13.378;2023-06-14T00:49:53;3.92;;;3.25;;
48487;SDS011;34289;48.572;13.378;2023-06-14T00:52:21;4.00;;;2.72;;
48487;SDS011;34289;48.572;13.378;2023-06-14T00:54:49;6.20;;;3.50;;
48487;SDS011;34289;48.572;13.378;2023-06-14T00:57:15;3.58;;;2.78;;
48487;SDS011;34289;48.572;13.378;2023-06-14T00:59:46;4.40;;;4.00;;
48487;SDS011;34289;48.572;13.378;2023-06-14T01:02:14;4.27;;;3.00;;
48487;SDS011;34289;48.572;13.378;2023-06-14T01:04:41;4.68;;;3.17;;
48487;SDS011;34289;48.572;13.378;2023-06-14T01:13:07;4.88;;;3.00;;
48487;SDS011;34289;48.572;13.378;2023-06-14T01:15:54;5.38;;;2.63;;
48487;SDS011;34289;48.572;13.378;2023-06-14T01:18:22;4.35;;;3.30;;
48487;SDS011;34289;48.572;13.378;2023-06-14T01:20:49;4.45;;;3.00;;
48487;SDS011;34289;48.572;13.378;2023-06-14T01:23:16;5.32;;;3.80;;
48487;SDS011;34289;48.572;13.378;2023-06-14T01:25:43;4.20;;;3.10;;
48487;SDS011;34289;48.572;13.378;2023-06-14T01:28:10;3.67;;;2.75;;
48487;SDS011;34289;48.572;13.378;2023-06-14T01:30:41;3.80;;;2.75;;
48487;SDS011;34289;48.572;13.378;2023-06-14T01:33:11;5.55;;;3.00;;
48487;SDS011;34289;48.572;13.378;2023-06-14T01:35:39;4.63;;;3.15;;
48487;SDS011;34289;48.572;13.378;2023-06-14T01:38:13;4.20;;;2.78;;
48487;SDS011;34289;48.572;13.378;2023-06-14T01:40:43;4.55;;;3.33;;
48487;SDS011;34289;48.572;13.378;2023-06-14T01:43:13;5.50;;;3.38;;
48487;SDS011;34289;48.572;13.378;2023-06-14T01:45:41;5.70;;;3.35;;
48487;SDS011;34289;48.572;13.378;2023-06-14T01:48:09;6.78;;;3.53;;
48487;SDS011;34289;48.572;13.378;2023-06-14T01:50:37;5.10;;;3.88;;
48487;SDS011;34289;48.572;13.378;2023-06-14T01:53:07;4.55;;;3.40;;
48487;SDS011;34289;48.572;13.378;2023-06-14T01:55:34;4.15;;;3.13;;
48487;SDS011;34289;48.572;13.378;2023-06-14T01:58:05;3.55;;;2.80;;
48487;SDS011;34289;48.572;13.378;2023-06-14T02:00:31;9.50;;;2.83;;
48487;SDS011;34289;48.572;13.378;2023-06-14T02:02:59;5.78;;;3.55;;
48487;SDS011;34289;48.572;13.378;2023-06-14T02:05:29;4.68;;;3.38;;
48487;SDS011;34289;48.572;13.378;2023-06-14T02:07:55;4.28;;;2.95;;
48487;SDS011;34289;48.572;13.378;2023-06-14T02:10:22;4.80;;;4.03;;
48487;SDS011;34289;48.572;13.378;2023-06-14T02:12:49;6.30;;;2.65;;
48487;SDS011;34289;48.572;13.378;2023-06-14T02:15:17;9.15;;;3.50;;
48487;SDS011;34289;48.572;13.378;2023-06-14T02:17:45;4.38;;;3.33;;
48487;SDS011;34289;48.572;13.378;2023-06-14T02:20:15;4.78;;;2.92;;
48487;SDS011;34289;48.572;13.378;2023-06-14T02:22:42;5.13;;;3.45;;
48487;SDS011;34289;48.572;13.378;2023-06-14T02:25:10;5.32;;;3.15;;
48487;SDS011;34289;48.572;13.378;2023-06-14T02:27:36;4.55;;;2.80;;
48487;SDS011;34289;48.572;13.378;2023-06-14T02:30:03;3.47;;;2.80;;
48487;SDS011;34289;48.572;13.378;2023-06-14T02:32:30;3.50;;;3.00;;
48487;SDS011;34289;48.572;13.378;2023-06-14T02:34:57;6.15;;;5.32;;
48487;SDS011;34289;48.572;13.378;2023-06-14T02:37:23;6.90;;;6.07;;
48487;SDS011;34289;48.572;13.378;2023-06-14T02:39:50;6.75;;;5.93;;
48487;SDS011;34289;48.572;13.378;2023-06-14T02:42:17;7.18;;;5.65;;
48487;SDS011;34289;48.572;13.378;2023-06-14T02:44:44;9.60;;;5.70;;
48487;SDS011;34289;48.572;13.378;2023-06-14T02:47:19;7.78;;;6.97;;
48487;SDS011;34289;48.572;13.378;2023-06-14T02:49:46;7.05;;;6.45;;
48487;SDS011;34289;48.572;13.378;2023-06-14T02:52:13;8.20;;;6.38;;
48487;SDS011;34289;48.572;13.378;2023-06-14T02:54:40;7.30;;;6.70;;
48487;SDS011;34289;48.572;13.378;2023-06-14T02:57:07;7.72;;;7.00;;
48487;SDS011;34289;48.572;13.378;2023-06-14T02:59:35;5.38;;;4.97;;
48487;SDS011;34289;48.572;13.378;2023-06-14T03:02:02;6.85;;;6.25;;
48487;SDS011;34289;48.572;13.378;2023-06-14T03:04:28;7.80;;;7.13;;
48487;SDS011;34289;48.572;13.378;2023-06-14T03:07:00;7.85;;;7.15;;
48487;SDS011;34289;48.572;13.378;2023-06-14T03:09:28;8.48;;;7.68;;
48487;SDS011;34289;48.572;13.378;2023-06-14T03:11:54;8.13;;;7.32;;
48487;SDS011;34289;48.572;13.378;2023-06-14T03:14:21;8.02;;;7.32;;
48487;SDS011;34289;48.572;13.378;2023-06-14T03:16:50;7.47;;;6.75;;
48487;SDS011;34289;48.572;13.378;2023-06-14T03:19:16;7.47;;;6.80;;
48487;SDS011;34289;48.572;13.378;2023-06-14T03:21:42;8.02;;;7.32;;
48487;SDS011;34289;48.572;13.378;2023-06-14T03:24:10;6.70;;;6.03;;
48487;SDS011;34289;48.572;13.378;2023-06-14T03:26:36;7.47;;;6.70;;
48487;SDS011;34289;48.572;13.378;2023-06-14T03:29:03;7.10;;;6.50;;
48487;SDS011;34289;48.572;13.378;2023-06-14T03:31:29;6.38;;;5.53;;
48487;SDS011;34289;48.572;13.378;2023-06-14T03:33:58;6.88;;;6.22;;
48487;SDS011;34289;48.572;13.378;2023-06-14T03:36:25;6.80;;;5.65;;
48487;SDS011;34289;48.572;13.378;2023-06-14T03:38:53;8.02;;;6.60;;
48487;SDS011;34289;48.572;13.378;2023-06-14T03:41:20;7.03;;;6.43;;
48487;SDS011;34289;48.572;13.378;2023-06-14T03:43:47;7.72;;;6.30;;
48487;SDS011;34289;48.572;13.378;2023-06-14T03:46:13;8.43;;;6.20;;
48487;SDS011;34289;48.572;13.378;2023-06-14T03:48:40;6.90;;;6.30;;
48487;SDS011;34289;48.572;13.378;2023-06-14T03:51:07;7.45;;;6.75;;
48487;SDS011;34289;48.572;13.378;2023-06-14T03:53:33;5.88;;;5.38;;
48487;SDS011;34289;48.572;13.378;2023-06-14T03:56:01;6.95;;;6.35;;
48487;SDS011;34289;48.572;13.378;2023-06-14T03:58:27;6.35;;;5.85;;
48487;SDS011;34289;48.572;13.378;2023-06-14T04:00:54;8.20;;;6.43;;
48487;SDS011;34289;48.572;13.378;2023-06-14T04:03:20;6.85;;;5.72;;
48487;SDS011;34289;48.572;13.378;2023-06-14T04:05:55;6.80;;;6.20;;
48487;SDS011;34289;48.572;13.378;2023-06-14T04:08:22;6.10;;;5.60;;
48487;SDS011;34289;48.572;13.378;2023-06-14T04:10:50;6.32;;;5.82;;
48487;SDS011;34289;48.572;13.378;2023-06-14T04:13:19;7.80;;;7.10;;
48487;SDS011;34289;48.572;13.378;2023-06-14T04:15:45;6.63;;;6.03;;
48487;SDS011;34289;48.572;13.378;2023-06-14T04:18:14;6.28;;;5.78;;
48487;SDS011;34289;48.572;13.378;2023-06-14T04:20:41;7.05;;;5.57;;
48487;SDS011;34289;48.572;13.378;2023-06-14T04:23:15;7.53;;;6.03;;
48487;SDS011;34289;48.572;13.378;2023-06-14T04:25:46;7.57;;;6.88;;
48487;SDS011;34289;48.572;13.378;2023-06-14T04:28:14;6.70;;;6.10;;
48487;SDS011;34289;48.572;13.378;2023-06-14T04:30:44;7.10;;;6.22;;
48487;SDS011;34289;48.572;13.378;2023-06-14T04:33:12;6.65;;;6.05;;
48487;SDS011;34289;48.572;13.378;2023-06-14T04:35:38;7.40;;;6.03;;
48487;SDS011;34289;48.572;13.378;2023-06-14T04:38:07;6.38;;;5.88;;
48487;SDS011;34289;48.572;13.378;2023-06-14T04:40:38;9.65;;;6.80;;
48487;SDS011;34289;48.572;13.378;2023-06-14T04:43:10;6.47;;;5.88;;
48487;SDS011;34289;48.572;13.378;2023-06-14T04:45:42;6.88;;;6.20;;
48487;SDS011;34289;48.572;13.378;2023-06-14T04:48:11;7.03;;;6.38;;
48487;SDS011;34289;48.572;13.378;2023-06-14T04:50:38;10.55;;;8.35;;
48487;SDS011;34289;48.572;13.378;2023-06-14T04:53:06;7.07;;;5.10;;
48487;SDS011;34289;48.572;13.378;2023-06-14T04:55:36;11.35;;;6.03;;
48487;SDS011;34289;48.572;13.378;2023-06-14T04:58:02;4.47;;;3.05;;
48487;SDS011;34289;48.572;13.378;2023-06-14T05:00:29;5.20;;;2.60;;
48487;SDS011;34289;48.572;13.378;2023-06-14T05:02:55;8.30;;;7.47;;
48487;SDS011;34289;48.572;13.378;2023-06-14T05:05:22;6.10;;;5.22;;
48487;SDS011;34289;48.572;13.378;2023-06-14T05:07:50;12.00;;;9.88;;
48487;SDS011;34289;48.572;13.378;2023-06-14T05:10:16;3.65;;;2.25;;
48487;SDS011;34289;48.572;13.378;2023-06-14T05:12:42;4.10;;;2.95;;
48487;SDS011;34289;48.572;13.378;2023-06-14T05:15:08;3.03;;;2.65;;
48487;SDS011;34289;48.572;13.378;2023-06-14T05:17:35;3.72;;;2.47;;
48487;SDS011;34289;48.572;13.378;2023-06-14T05:20:01;6.72;;;6.13;;
48487;SDS011;34289;48.572;13.378;2023-06-14T05:22:27;5.93;;;5.43;;
48487;SDS011;34289;48.572;13.378;2023-06-14T05:24:55;7.35;;;6.80;;
48487;SDS011;34289;48.572;13.378;2023-06-14T05:27:21;9.48;;;8.77;;
48487;SDS011;34289;48.572;13.378;2023-06-14T05:29:47;8.65;;;7.95;;
48487;SDS011;34289;48.572;13.378;2023-06-14T05:32:15;5.38;;;3.00;;
48487;SDS011;34289;48.572;13.378;2023-06-14T05:34:42;5.32;;;2.75;;
48487;SDS011;34289;48.572;13.378;2023-06-14T05:37:09;4.45;;;2.28;;
48487;SDS011;34289;48.572;13.378;2023-06-14T05:39:35;3.42;;;2.22;;
48487;SDS011;34289;48.572;13.378;2023-06-14T05:42:01;3.72;;;2.33;;
48487;SDS011;34289;48.572;13.378;2023-06-14T05:44:28;5.38;;;4.85;;
48487;SDS011;34289;48.572;13.378;2023-06-14T05:46:54;6.00;;;5.53;;
48487;SDS011;34289;48.572;13.378;2023-06-14T05:49:21;2.35;;;1.85;;
48487;SDS011;34289;48.572;13.378;2023-06-14T05:51:48;2.83;;;2.30;;
48487;SDS011;34289;48.572;13.378;2023-06-14T05:54:14;3.70;;;2.20;;
48487;SDS011;34289;48.572;13.378;2023-06-14T05:56:40;2.38;;;1.80;;
48487;SDS011;34289;48.572;13.378;2023-06-14T05:59:07;2.72;;;2.45;;
48487;SDS011;34289;48.572;13.378;2023-06-14T06:01:35;5.90;;;2.22;;
48487;SDS011;34289;48.572;13.378;2023-06-14T06:04:02;3.72;;;2.20;;
48487;SDS011;34289;48.572;13.378;2023-06-14T06:06:29;3.53;;;2.13;;
48487;SDS011;34289;48.572;13.378;2023-06-14T06:08:55;5.55;;;2.47;;
48487;SDS011;34289;48.572;13.378;2023-06-14T06:11:22;4.72;;;3.35;;
48487;SDS011;34289;48.572;13.378;2023-06-14T06:13:48;7.57;;;2.80;;
48487;SDS011;34289;48.572;13.378;2023-06-14T06:16:17;7.35;;;6.68;;
48487;SDS011;34289;48.572;13.378;2023-06-14T06:18:43;6.60;;;4.13;;
48487;SDS011;34289;48.572;13.378;2023-06-14T06:21:09;5.00;;;2.83;;
48487;SDS011;34289;48.572;13.378;2023-06-14T06:23:36;5.97;;;3.10;;
48487;SDS011;34289;48.572;13.378;2023-06-14T06:26:04;3.45;;;2.70;;
48487;SDS011;34289;48.572;13.378;2023-06-14T06:28:30;11.85;;;10.95;;
48487;SDS011;34289;48.572;13.378;2023-06-14T06:30:59;7.32;;;6.63;;
48487;SDS011;34289;48.572;13.378;2023-06-14T06:33:25;7.95;;;2.95;;
48487;SDS011;34289;48.572;13.378;2023-06-14T06:35:52;11.82;;;3.58;;
48487;SDS011;34289;48.572;13.378;2023-06-14T06:38:21;9.90;;;3.25;;
48487;SDS011;34289;48.572;13.378;2023-06-14T06:40:49;4.68;;;2.88;;
48487;SDS011;34289;48.572;13.378;2023-06-14T06:43:19;7.80;;;3.10;;
48487;SDS011;34289;48.572;13.378;2023-06-14T06:45:46;3.60;;;2.90;;
48487;SDS011;34289;48.572;13.378;2023-06-14T06:48:13;4.03;;;2.95;;
48487;SDS011;34289;48.572;13.378;2023-06-14T06:50:41;2.88;;;2.25;;
48487;SDS011;34289;48.572;13.378;2023-06-14T06:53:07;7.55;;;3.13;;
48487;SDS011;34289;48.572;13.378;2023-06-14T06:55:33;4.05;;;2.47;;
48487;SDS011;34289;48.572;13.378;2023-06-14T06:58:00;4.25;;;2.70;;
48487;SDS011;34289;48.572;13.378;2023-06-14T07:00:26;5.80;;;2.70;;
48487;SDS011;34289;48.572;13.378;2023-06-14T07:02:58;6.97;;;2.90;;
48487;SDS011;34289;48.572;13.378;2023-06-14T07:05:24;3.85;;;2.33;;
48487;SDS011;34289;48.572;13.378;2023-06-14T07:07:51;8.55;;;3.03;;
48487;SDS011;34289;48.572;13.378;2023-06-14T07:10:16;4.40;;;2.80;;
48487;SDS011;34289;48.572;13.378;2023-06-14T07:12:43;6.75;;;3.40;;
48487;SDS011;34289;48.572;13.378;2023-06-14T07:15:10;5.47;;;2.42;;
48487;SDS011;34289;48.572;13.378;2023-06-14T07:17:36;4.32;;;2.58;;
48487;SDS011;34289;48.572;13.378;2023-06-14T07:20:02;3.30;;;2.00;;
48487;SDS011;34289;48.572;13.378;2023-06-14T07:25:12;7.05;;;2.50;;
48487;SDS011;34289;48.572;13.378;2023-06-14T07:27:42;5.15;;;2.47;;
48487;SDS011;34289;48.572;13.378;2023-06-14T07:30:12;4.05;;;2.30;;
48487;SDS011;34289;48.572;13.378;2023-06-14T07:32:38;3.58;;;2.58;;
48487;SDS011;34289;48.572;13.378;2023-06-14T07:35:05;4.35;;;2.85;;
48487;SDS011;34289;48.572;13.378;2023-06-14T07:37:36;4.97;;;2.17;;
48487;SDS011;34289;48.572;13.378;2023-06-14T07:40:02;5.40;;;2.70;;
48487;SDS011;34289;48.572;13.378;2023-06-14T07:42:33;3.75;;;2.70;;
48487;SDS011;34289;48.572;13.378;2023-06-14T07:45:02;3.42;;;2.60;;
48487;SDS011;34289;48.572;13.378;2023-06-14T07:47:28;3.53;;;2.78;;
48487;SDS011;34289;48.572;13.378;2023-06-14T07:49:55;4.15;;;2.78;;
48487;SDS011;34289;48.572;13.378;2023-06-14T07:52:24;4.93;;;2.33;;
48487;SDS011;34289;48.572;13.378;2023-06-14T07:54:50;5.10;;;2.72;;
48487;SDS011;34289;48.572;13.378;2023-06-14T07:57:19;6.97;;;2.95;;
48487;SDS011;34289;48.572;13.378;2023-06-14T07:59:46;7.85;;;2.47;;
48487;SDS011;34289;48.572;13.378;2023-06-14T08:02:12;5.30;;;2.78;;
48487;SDS011;34289;48.572;13.378;2023-06-14T08:04:39;6.53;;;2.88;;
48487;SDS011;34289;48.572;13.378;2023-06-14T08:07:19;2.67;;;2.22;;
48487;SDS011;34289;48.572;13.378;2023-06-14T08:09:51;3.75;;;2.40;;
48487;SDS011;34289;48.572;13.378;2023-06-14T08:12:17;5.45;;;2.50;;
48487;SDS011;34289;48.572;13.378;2023-06-14T08:14:44;2.90;;;2.00;;
48487;SDS011;34289;48.572;13.378;2023-06-14T08:17:15;3.37;;;2.50;;
48487;SDS011;34289;48.572;13.378;2023-06-14T08:19:41;3.13;;;1.95;;
48487;SDS011;34289;48.572;13.378;2023-06-14T08:22:08;3.80;;;2.55;;
48487;SDS011;34289;48.572;13.378;2023-06-14T08:24:36;4.70;;;2.60;;
48487;SDS011;34289;48.572;13.378;2023-06-14T08:27:04;3.58;;;2.40;;
48487;SDS011;34289;48.572;13.378;2023-06-14T08:29:31;6.05;;;2.35;;
48487;SDS011;34289;48.572;13.378;2023-06-14T08:31:57;7.82;;;2.45;;
48487;SDS011;34289;48.572;13.378;2023-06-14T08:34:24;3.10;;;2.10;;
48487;SDS011;34289;48.572;13.378;2023-06-14T08:36:54;3.13;;;2.28;;
48487;SDS011;34289;48.572;13.378;2023-06-14T08:39:21;4.93;;;2.30;;
48487;SDS011;34289;48.572;13.378;2023-06-14T08:41:47;8.10;;;2.58;;
48487;SDS011;34289;48.572;13.378;2023-06-14T08:44:16;6.90;;;2.63;;
48487;SDS011;34289;48.572;13.378;2023-06-14T08:46:43;4.80;;;3.22;;
48487;SDS011;34289;48.572;13.378;2023-06-14T08:49:11;4.40;;;2.40;;
48487;SDS011;34289;48.572;13.378;2023-06-14T08:51:38;3.28;;;2.03;;
48487;SDS011;34289;48.572;13.378;2023-06-14T08:54:05;6.93;;;2.10;;
48487;SDS011;34289;48.572;13.378;2023-06-14T08:56:37;4.95;;;2.80;;
48487;SDS011;34289;48.572;13.378;2023-06-14T08:59:06;5.57;;;2.10;;
48487;SDS011;34289;48.572;13.378;2023-06-14T09:01:40;3.53;;;2.10;;
48487;SDS011;34289;48.572;13.378;2023-06-14T09:04:17;3.95;;;1.98;;
48487;SDS011;34289;48.572;13.378;2023-06-14T09:06:45;2.97;;;2.20;;
48487;SDS011;34289;48.572;13.378;2023-06-14T09:09:11;5.97;;;2.38;;
48487;SDS011;34289;48.572;13.378;2023-06-14T09:11:43;5.72;;;2.15;;
48487;SDS011;34289;48.572;13.378;2023-06-14T09:14:09;3.20;;;2.20;;
48487;SDS011;34289;48.572;13.378;2023-06-14T09:16:37;3.67;;;2.10;;
48487;SDS011;34289;48.572;13.378;2023-06-14T09:19:06;4.85;;;2.28;;
48487;SDS011;34289;48.572;13.378;2023-06-14T09:21:35;5.93;;;2.08;;
48487;SDS011;34289;48.572;13.378;2023-06-14T09:24:02;2.75;;;2.00;;
48487;SDS011;34289;48.572;13.378;2023-06-14T09:26:29;6.07;;;2.38;;
48487;SDS011;34289;48.572;13.378;2023-06-14T09:28:55;5.75;;;2.28;;
48487;SDS011;34289;48.572;13.378;2023-06-14T09:31:22;2.92;;;1.80;;
48487;SDS011;34289;48.572;13.378;2023-06-14T09:33:51;6.03;;;2.00;;
48487;SDS011;34289;48.572;13.378;2023-06-14T09:36:24;4.07;;;2.15;;
48487;SDS011;34289;48.572;13.378;2023-06-14T09:39:01;3.25;;;2.15;;
48487;SDS011;34289;48.572;13.378;2023-06-14T09:41:33;5.85;;;1.73;;
48487;SDS011;34289;48.572;13.378;2023-06-14T09:44:11;5.03;;;2.15;;
48487;SDS011;34289;48.572;13.378;2023-06-14T09:46:55;3.13;;;2.15;;
48487;SDS011;34289;48.572;13.378;2023-06-14T09:49:26;5.15;;;2.22;;
48487;SDS011;34289;48.572;13.378;2023-06-14T09:51:52;3.63;;;2.17;;
48487;SDS011;34289;48.572;13.378;2023-06-14T09:54:26;4.93;;;2.30;;
48487;SDS011;34289;48.572;13.378;2023-06-14T09:57:12;4.13;;;2.35;;
48487;SDS011;34289;48.572;13.378;2023-06-14T09:59:40;4.70;;;2.10;;
48487;SDS011;34289;48.572;13.378;2023-06-14T10:02:14;5.13;;;2.20;;
48487;SDS011;34289;48.572;13.378;2023-06-14T10:05:03;3.15;;;1.88;;
48487;SDS011;34289;48.572;13.378;2023-06-14T10:07:32;3.45;;;2.53;;
48487;SDS011;34289;48.572;13.378;2023-06-14T10:10:05;2.88;;;1.90;;
48487;SDS011;34289;48.572;13.378;2023-06-14T10:12:33;2.63;;;2.28;;
48487;SDS011;34289;48.572;13.378;2023-06-14T10:14:59;5.28;;;2.38;;
48487;SDS011;34289;48.572;13.378;2023-06-14T10:20:20;4.75;;;1.80;;
48487;SDS011;34289;48.572;13.378;2023-06-14T10:22:58;5.03;;;3.60;;
48487;SDS011;34289;48.572;13.378;2023-06-14T10:25:29;4.72;;;1.90;;
48487;SDS011;34289;48.572;13.378;2023-06-14T10:31:06;6.13;;;2.60;;
48487;SDS011;34289;48.572;13.378;2023-06-14T10:33:48;3.38;;;2.20;;
48487;SDS011;34289;48.572;13.378;2023-06-14T10:39:00;7.47;;;2.25;;
48487;SDS011;34289;48.572;13.378;2023-06-14T10:46:41;2.53;;;2.03;;
48487;SDS011;34289;48.572;13.378;2023-06-14T10:49:12;3.55;;;2.33;;
48487;SDS011;34289;48.572;13.378;2023-06-14T10:51:44;3.93;;;1.80;;
48487;SDS011;34289;48.572;13.378;2023-06-14T10:54:21;6.97;;;2.03;;
48487;SDS011;34289;48.572;13.378;2023-06-14T10:56:56;4.70;;;2.40;;
48487;SDS011;34289;48.572;13.378;2023-06-14T10:59:25;4.35;;;2.17;;
48487;SDS011;34289;48.572;13.378;2023-06-14T11:10:40;10.20;;;2.20;;
48487;SDS011;34289;48.572;13.378;2023-06-14T11:13:09;3.95;;;2.40;;
48487;SDS011;34289;48.572;13.378;2023-06-14T11:15:38;7.85;;;2.10;;
48487;SDS011;34289;48.572;13.378;2023-06-14T11:18:08;3.10;;;1.90;;
48487;SDS011;34289;48.572;13.378;2023-06-14T11:20:37;2.90;;;1.85;;
48487;SDS011;34289;48.572;13.378;2023-06-14T11:23:05;5.72;;;2.30;;
48487;SDS011;34289;48.572;13.378;2023-06-14T11:25:31;2.72;;;2.00;;
48487;SDS011;34289;48.572;13.378;2023-06-14T11:27:57;3.47;;;2.42;;
48487;SDS011;34289;48.572;13.378;2023-06-14T11:30:26;3.58;;;2.00;;
48487;SDS011;34289;48.572;13.378;2023-06-14T11:32:53;4.28;;;2.38;;
48487;SDS011;34289;48.572;13.378;2023-06-14T11:35:23;4.43;;;1.88;;
48487;SDS011;34289;48.572;13.378;2023-06-14T11:37:54;3.78;;;2.05;;
48487;SDS011;34289;48.572;13.378;2023-06-14T11:40:25;5.30;;;1.73;;
48487;SDS011;34289;48.572;13.378;2023-06-14T11:43:05;4.38;;;1.77;;
48487;SDS011;34289;48.572;13.378;2023-06-14T11:45:40;5.70;;;2.53;;
48487;SDS011;34289;48.572;13.378;2023-06-14T11:48:18;4.18;;;2.67;;
48487;SDS011;34289;48.572;13.378;2023-06-14T11:50:44;8.23;;;2.60;;
48487;SDS011;34289;48.572;13.378;2023-06-14T11:53:15;5.13;;;3.63;;
48487;SDS011;34289;48.572;13.378;2023-06-14T11:55:44;17.08;;;12.73;;
48487;SDS011;34289;48.572;13.378;2023-06-14T11:58:18;7.30;;;2.50;;
48487;SDS011;34289;48.572;13.378;2023-06-14T12:00:55;4.68;;;2.47;;
48487;SDS011;34289;48.572;13.378;2023-06-14T12:03:24;6.10;;;3.17;;
48487;SDS011;34289;48.572;13.378;2023-06-14T12:06:06;7.60;;;4.95;;
48487;SDS011;34289;48.572;13.378;2023-06-14T12:08:37;7.43;;;3.17;;
48487;SDS011;34289;48.572;13.378;2023-06-14T12:11:11;8.27;;;4.10;;
48487;SDS011;34289;48.572;13.378;2023-06-14T12:13:41;3.95;;;2.40;;
48487;SDS011;34289;48.572;13.378;2023-06-14T12:16:11;6.47;;;2.95;;
48487;SDS011;34289;48.572;13.378;2023-06-14T12:18:38;5.68;;;2.17;;
48487;SDS011;34289;48.572;13.378;2023-06-14T12:21:06;4.65;;;2.40;;
48487;SDS011;34289;48.572;13.378;2023-06-14T12:23:42;3.97;;;2.33;;
48487;SDS011;34289;48.572;13.378;2023-06-14T12:26:19;2.97;;;2.05;;
48487;SDS011;34289;48.572;13.378;2023-06-14T12:28:46;6.55;;;2.13;;
48487;SDS011;34289;48.572;13.378;2023-06-14T12:31:19;3.35;;;1.92;;
48487;SDS011;34289;48.572;13.378;2023-06-14T12:33:54;4.68;;;2.25;;
48487;SDS011;34289;48.572;13.378;2023-06-14T12:36:24;4.50;;;2.15;;
48487;SDS011;34289;48.572;13.378;2023-06-14T12:38:54;4.25;;;1.85;;
48487;SDS011;34289;48.572;13.378;2023-06-14T12:41:27;4.93;;;2.20;;
48487;SDS011;34289;48.572;13.378;2023-06-14T12:43:55;7.82;;;2.05;;
48487;SDS011;34289;48.572;13.378;2023-06-14T12:46:24;4.43;;;2.10;;
48487;SDS011;34289;48.572;13.378;2023-06-14T12:48:53;4.22;;;2.35;;
48487;SDS011;34289;48.572;13.378;2023-06-14T12:51:19;2.53;;;2.08;;
48487;SDS011;34289;48.572;13.378;2023-06-14T12:53:45;4.85;;;2.40;;
48487;SDS011;34289;48.572;13.378;2023-06-14T12:56:11;2.65;;;2.03;;
48487;SDS011;34289;48.572;13.378;2023-06-14T12:58:39;3.58;;;2.10;;
48487;SDS011;34289;48.572;13.378;2023-06-14T13:01:05;4.13;;;2.35;;
48487;SDS011;34289;48.572;13.378;2023-06-14T13:03:36;2.42;;;1.95;;
48487;SDS011;34289;48.572;13.378;2023-06-14T13:06:09;3.83;;;2.03;;
48487;SDS011;34289;48.572;13.378;2023-06-14T13:08:35;5.70;;;2.28;;
48487;SDS011;34289;48.572;13.378;2023-06-14T13:11:00;4.03;;;2.22;;
48487;SDS011;34289;48.572;13.378;2023-06-14T13:13:26;2.95;;;1.85;;
48487;SDS011;34289;48.572;13.378;2023-06-14T13:15:52;2.72;;;1.83;;
48487;SDS011;34289;48.572;13.378;2023-06-14T13:18:17;5.45;;;2.08;;
48487;SDS011;34289;48.572;13.378;2023-06-14T13:20:43;5.05;;;2.00;;
48487;SDS011;34289;48.572;13.378;2023-06-14T13:23:10;5.95;;;2.13;;
48487;SDS011;34289;48.572;13.378;2023-06-14T13:25:36;2.90;;;1.80;;
48487;SDS011;34289;48.572;13.378;2023-06-14T13:28:03;4.57;;;1.83;;
48487;SDS011;34289;48.572;13.378;2023-06-14T13:30:29;4.47;;;1.65;;
48487;SDS011;34289;48.572;13.378;2023-06-14T13:32:56;3.92;;;1.80;;
48487;SDS011;34289;48.572;13.378;2023-06-14T13:35:22;4.00;;;2.10;;
48487;SDS011;34289;48.572;13.378;2023-06-14T13:37:48;4.25;;;3.35;;
48487;SDS011;34289;48.572;13.378;2023-06-14T13:40:14;5.00;;;2.00;;
48487;SDS011;34289;48.572;13.378;2023-06-14T13:42:40;4.05;;;1.98;;
48487;SDS011;34289;48.572;13.378;2023-06-14T13:45:06;2.28;;;1.90;;
48487;SDS011;34289;48.572;13.378;2023-06-14T13:47:32;4.63;;;2.35;;
48487;SDS011;34289;48.572;13.378;2023-06-14T13:49:58;6.13;;;2.08;;
48487;SDS011;34289;48.572;13.378;2023-06-14T13:52:24;3.58;;;2.00;;
48487;SDS011;34289;48.572;13.378;2023-06-14T13:54:50;2.03;;;1.63;;
48487;SDS011;34289;48.572;13.378;2023-06-14T13:57:16;6.18;;;1.80;;
48487;SDS011;34289;48.572;13.378;2023-06-14T13:59:43;3.13;;;1.83;;
48487;SDS011;34289;48.572;13.378;2023-06-14T14:02:09;3.78;;;1.90;;
48487;SDS011;34289;48.572;13.378;2023-06-14T14:04:36;2.88;;;2.05;;
48487;SDS011;34289;48.572;13.378;2023-06-14T14:07:02;3.22;;;2.10;;
48487;SDS011;34289;48.572;13.378;2023-06-14T14:09:29;4.97;;;2.15;;
48487;SDS011;34289;48.572;13.378;2023-06-14T14:11:55;5.35;;;2.25;;
48487;SDS011;34289;48.572;13.378;2023-06-14T14:14:21;4.68;;;1.90;;
48487;SDS011;34289;48.572;13.378;2023-06-14T14:16:48;3.72;;;2.00;;
48487;SDS011;34289;48.572;13.378;2023-06-14T14:19:16;2.38;;;1.83;;
48487;SDS011;34289;48.572;13.378;2023-06-14T14:21:43;4.18;;;1.70;;
48487;SDS011;34289;48.572;13.378;2023-06-14T14:24:09;3.65;;;2.00;;
48487;SDS011;34289;48.572;13.378;2023-06-14T14:26:35;5.22;;;2.22;;
48487;SDS011;34289;48.572;13.378;2023-06-14T14:29:00;5.97;;;2.10;;
48487;SDS011;34289;48.572;13.378;2023-06-14T14:31:27;4.72;;;2.13;;
48487;SDS011;34289;48.572;13.378;2023-06-14T14:33:53;3.95;;;2.35;;
48487;SDS011;34289;48.572;13.378;2023-06-14T14:36:19;4.45;;;1.95;;
48487;SDS011;34289;48.572;13.378;2023-06-14T14:38:45;3.95;;;2.17;;
48487;SDS011;34289;48.572;13.378;2023-06-14T14:41:12;6.85;;;2.40;;
48487;SDS011;34289;48.572;13.378;2023-06-14T14:43:37;4.38;;;2.00;;
48487;SDS011;34289;48.572;13.378;2023-06-14T14:46:03;3.05;;;2.08;;
48487;SDS011;34289;48.572;13.378;2023-06-14T14:48:29;5.10;;;1.73;;
48487;SDS011;34289;48.572;13.378;2023-06-14T14:50:54;3.22;;;2.08;;
48487;SDS011;34289;48.572;13.378;2023-06-14T14:53:20;3.47;;;1.80;;
48487;SDS011;34289;48.572;13.378;2023-06-14T14:55:45;2.17;;;1.80;;
48487;SDS011;34289;48.572;13.378;2023-06-14T14:58:11;4.38;;;2.60;;
48487;SDS011;34289;48.572;13.378;2023-06-14T15:00:38;5.28;;;2.10;;
48487;SDS011;34289;48.572;13.378;2023-06-14T15:03:03;9.02;;;1.90;;
48487;SDS011;34289;48.572;13.378;2023-06-14T15:05:29;2.90;;;2.05;;
48487;SDS011;34289;48.572;13.378;2023-06-14T15:07:55;2.55;;;2.05;;
48487;SDS011;34289;48.572;13.378;2023-06-14T15:10:21;3.10;;;1.90;;